sensor_id;sensor_type;location;lat;lon;timestamp;P1;durP1;ratioP1;P2;durP2;ratioP2
18125;SDS011;53956;52.442;13.284;2023-06-22T00:02:00;13.27;;;11.52;;
18125;SDS011;53956;52.442;13.284;2023-06-22T00:04:27;14.65;;;12.25;;
18125;SDS011;53956;52.442;13.284;2023-06-22T00:06:54;15.20;;;11.93;;
18125;SDS011;53956;52.442;13.284;2023-06-22T00:09:22;12.90;;;10.77;;
18125;SDS011;53956;52.442;13.284;2023-06-22T00:11:48;12.98;;;11.18;;
18125;SDS011;53956;52.442;13.284;2023-06-22T00:14:15;13.27;;;10.80;;
18125;SDS011;53956;52.442;13.284;2023-06-22T00:16:41;11.70;;;10.02;;
18125;SDS011;53956;52.442;13.284;2023-06-22T00:19:08;12.93;;;10.48;;
18125;SDS011;53956;52.442;13.284;2023-06-22T00:21:36;11.75;;;10.35;;
18125;SDS011;53956;52.442;13.284;2023-06-22T00:24:03;12.18;;;10.40;;
18125;SDS011;53956;52.442;13.284;2023-06-22T00:26:32;12.35;;;9.90;;
18125;SDS011;53956;52.442;13.284;2023-06-22T00:28:59;11.65;;;9.75;;
18125;SDS011;53956;52.442;13.284;2023-06-22T00:31:26;12.50;;;10.55;;
18125;SDS011;53956;52.442;13.284;2023-06-22T00:33:53;11.02;;;9.80;;
18125;SDS011;53956;52.442;13.284;2023-06-22T00:36:19;13.85;;;10.15;;
18125;SDS011;53956;52.442;13.284;2023-06-22T00:38:46;11.27;;;9.48;;
18125;SDS011;53956;52.442;13.284;2023-06-22T00:41:15;11.77;;;10.07;;
18125;SDS011;53956;52.442;13.284;2023-06-22T00:43:44;11.90;;;10.00;;
18125;SDS011;53956;52.442;13.284;2023-06-22T00:46:11;12.70;;;9.05;;
18125;SDS011;53956;52.442;13.284;2023-06-22T00:48:38;12.32;;;9.18;;
18125;SDS011;53956;52.442;13.284;2023-06-22T00:51:06;11.52;;;9.02;;
18125;SDS011;53956;52.442;13.284;2023-06-22T00:53:33;11.18;;;8.63;;
18125;SDS011;53956;52.442;13.284;2023-06-22T00:56:03;11.05;;;9.88;;
18125;SDS011;53956;52.442;13.284;2023-06-22T00:58:30;11.75;;;8.98;;
18125;SDS011;53956;52.442;13.284;2023-06-22T01:00:59;12.85;;;9.40;;
18125;SDS011;53956;52.442;13.284;2023-06-22T01:03:27;12.70;;;9.27;;
18125;SDS011;53956;52.442;13.284;2023-06-22T01:05:55;11.15;;;9.07;;
18125;SDS011;53956;52.442;13.284;2023-06-22T01:08:29;11.18;;;9.27;;
18125;SDS011;53956;52.442;13.284;2023-06-22T01:11:00;11.85;;;8.88;;
18125;SDS011;53956;52.442;13.284;2023-06-22T01:13:33;10.30;;;8.98;;
18125;SDS011;53956;52.442;13.284;2023-06-22T01:16:05;12.43;;;9.52;;
18125;SDS011;53956;52.442;13.284;2023-06-22T01:18:37;11.40;;;9.13;;
18125;SDS011;53956;52.442;13.284;2023-06-22T01:21:07;11.32;;;9.63;;
18125;SDS011;53956;52.442;13.284;2023-06-22T01:23:47;17.17;;;9.40;;
18125;SDS011;53956;52.442;13.284;2023-06-22T01:26:20;12.43;;;9.98;;
18125;SDS011;53956;52.442;13.284;2023-06-22T01:28:55;12.85;;;9.65;;
18125;SDS011;53956;52.442;13.284;2023-06-22T01:31:27;12.95;;;9.35;;
18125;SDS011;53956;52.442;13.284;2023-06-22T01:33:57;11.00;;;9.80;;
18125;SDS011;53956;52.442;13.284;2023-06-22T01:36:25;10.85;;;9.43;;
18125;SDS011;53956;52.442;13.284;2023-06-22T01:38:53;11.80;;;9.48;;
18125;SDS011;53956;52.442;13.284;2023-06-22T01:41:20;12.18;;;10.10;;
18125;SDS011;53956;52.442;13.284;2023-06-22T01:43:47;13.32;;;9.70;;
18125;SDS011;53956;52.442;13.284;2023-06-22T01:46:16;14.57;;;10.63;;
18125;SDS011;53956;52.442;13.284;2023-06-22T01:48:44;12.55;;;9.73;;
18125;SDS011;53956;52.442;13.284;2023-06-22T01:51:12;11.23;;;9.77;;
18125;SDS011;53956;52.442;13.284;2023-06-22T01:53:38;12.43;;;10.38;;
18125;SDS011;53956;52.442;13.284;2023-06-22T01:56:05;15.77;;;10.45;;
18125;SDS011;53956;52.442;13.284;2023-06-22T01:58:33;12.65;;;10.82;;
18125;SDS011;53956;52.442;13.284;2023-06-22T02:01:04;11.60;;;10.40;;
18125;SDS011;53956;52.442;13.284;2023-06-22T02:03:38;17.02;;;10.93;;
18125;SDS011;53956;52.442;13.284;2023-06-22T02:06:08;12.05;;;10.23;;
18125;SDS011;53956;52.442;13.284;2023-06-22T02:08:46;13.10;;;10.10;;
18125;SDS011;53956;52.442;13.284;2023-06-22T02:11:16;13.52;;;11.35;;
18125;SDS011;53956;52.442;13.284;2023-06-22T02:13:45;13.68;;;11.05;;
18125;SDS011;53956;52.442;13.284;2023-06-22T02:16:13;14.15;;;11.13;;
18125;SDS011;53956;52.442;13.284;2023-06-22T02:18:46;12.88;;;10.68;;
18125;SDS011;53956;52.442;13.284;2023-06-22T02:21:15;14.77;;;11.13;;
18125;SDS011;53956;52.442;13.284;2023-06-22T02:23:42;14.63;;;12.32;;
18125;SDS011;53956;52.442;13.284;2023-06-22T02:26:09;21.45;;;12.57;;
18125;SDS011;53956;52.442;13.284;2023-06-22T02:28:36;15.93;;;12.93;;
18125;SDS011;53956;52.442;13.284;2023-06-22T02:31:02;15.45;;;11.77;;
18125;SDS011;53956;52.442;13.284;2023-06-22T02:33:29;14.77;;;11.68;;
18125;SDS011;53956;52.442;13.284;2023-06-22T02:35:57;14.80;;;12.32;;
18125;SDS011;53956;52.442;13.284;2023-06-22T02:38:24;16.65;;;13.52;;
18125;SDS011;53956;52.442;13.284;2023-06-22T02:40:50;18.80;;;15.13;;
18125;SDS011;53956;52.442;13.284;2023-06-22T02:43:17;15.95;;;13.52;;
18125;SDS011;53956;52.442;13.284;2023-06-22T02:45:44;16.42;;;13.05;;
18125;SDS011;53956;52.442;13.284;2023-06-22T02:48:11;15.00;;;13.00;;
18125;SDS011;53956;52.442;13.284;2023-06-22T02:50:38;14.75;;;12.85;;
18125;SDS011;53956;52.442;13.284;2023-06-22T02:53:06;15.35;;;12.77;;
18125;SDS011;53956;52.442;13.284;2023-06-22T02:55:36;18.90;;;14.88;;
18125;SDS011;53956;52.442;13.284;2023-06-22T02:58:04;16.85;;;13.90;;
18125;SDS011;53956;52.442;13.284;2023-06-22T03:00:34;15.48;;;13.35;;
18125;SDS011;53956;52.442;13.284;2023-06-22T03:03:04;16.55;;;13.73;;
18125;SDS011;53956;52.442;13.284;2023-06-22T03:05:31;17.90;;;14.05;;
18125;SDS011;53956;52.442;13.284;2023-06-22T03:07:58;15.45;;;13.32;;
18125;SDS011;53956;52.442;13.284;2023-06-22T03:10:28;16.00;;;13.57;;
18125;SDS011;53956;52.442;13.284;2023-06-22T03:12:55;18.45;;;15.13;;
18125;SDS011;53956;52.442;13.284;2023-06-22T03:15:21;17.20;;;14.32;;
18125;SDS011;53956;52.442;13.284;2023-06-22T03:17:49;17.27;;;13.55;;
18125;SDS011;53956;52.442;13.284;2023-06-22T03:20:16;17.23;;;14.85;;
18125;SDS011;53956;52.442;13.284;2023-06-22T03:22:44;16.08;;;14.35;;
18125;SDS011;53956;52.442;13.284;2023-06-22T03:25:10;20.45;;;15.13;;
18125;SDS011;53956;52.442;13.284;2023-06-22T03:27:41;17.65;;;14.82;;
18125;SDS011;53956;52.442;13.284;2023-06-22T03:30:10;17.27;;;14.02;;
18125;SDS011;53956;52.442;13.284;2023-06-22T03:32:37;19.25;;;14.55;;
18125;SDS011;53956;52.442;13.284;2023-06-22T03:35:05;18.55;;;14.18;;
18125;SDS011;53956;52.442;13.284;2023-06-22T03:37:35;18.30;;;13.30;;
18125;SDS011;53956;52.442;13.284;2023-06-22T03:40:02;17.55;;;13.38;;
18125;SDS011;53956;52.442;13.284;2023-06-22T03:42:31;17.40;;;12.98;;
18125;SDS011;53956;52.442;13.284;2023-06-22T03:45:00;15.98;;;12.75;;
18125;SDS011;53956;52.442;13.284;2023-06-22T03:47:28;17.33;;;12.35;;
18125;SDS011;53956;52.442;13.284;2023-06-22T03:49:57;16.08;;;13.13;;
18125;SDS011;53956;52.442;13.284;2023-06-22T03:52:23;14.00;;;12.07;;
18125;SDS011;53956;52.442;13.284;2023-06-22T03:54:50;17.70;;;12.95;;
18125;SDS011;53956;52.442;13.284;2023-06-22T03:57:17;16.60;;;13.02;;
18125;SDS011;53956;52.442;13.284;2023-06-22T03:59:43;16.67;;;12.05;;
18125;SDS011;53956;52.442;13.284;2023-06-22T04:02:11;16.77;;;12.88;;
18125;SDS011;53956;52.442;13.284;2023-06-22T04:04:38;15.75;;;12.68;;
18125;SDS011;53956;52.442;13.284;2023-06-22T04:07:05;14.57;;;11.93;;
18125;SDS011;53956;52.442;13.284;2023-06-22T04:09:32;14.20;;;11.82;;
18125;SDS011;53956;52.442;13.284;2023-06-22T04:11:58;14.77;;;11.45;;
18125;SDS011;53956;52.442;13.284;2023-06-22T04:14:25;15.23;;;11.52;;
18125;SDS011;53956;52.442;13.284;2023-06-22T04:16:52;15.85;;;12.10;;
18125;SDS011;53956;52.442;13.284;2023-06-22T04:19:20;15.80;;;11.63;;
18125;SDS011;53956;52.442;13.284;2023-06-22T04:21:47;19.15;;;11.25;;
18125;SDS011;53956;52.442;13.284;2023-06-22T04:24:14;16.88;;;12.45;;
18125;SDS011;53956;52.442;13.284;2023-06-22T04:26:41;17.63;;;12.80;;
18125;SDS011;53956;52.442;13.284;2023-06-22T04:29:10;17.05;;;12.38;;
18125;SDS011;53956;52.442;13.284;2023-06-22T04:31:36;16.08;;;11.98;;
18125;SDS011;53956;52.442;13.284;2023-06-22T04:34:03;18.10;;;13.45;;
18125;SDS011;53956;52.442;13.284;2023-06-22T04:36:34;15.02;;;12.20;;
18125;SDS011;53956;52.442;13.284;2023-06-22T04:39:06;13.88;;;10.90;;
18125;SDS011;53956;52.442;13.284;2023-06-22T04:41:34;15.50;;;13.15;;
18125;SDS011;53956;52.442;13.284;2023-06-22T04:44:07;15.10;;;12.52;;
18125;SDS011;53956;52.442;13.284;2023-06-22T04:46:34;18.10;;;12.43;;
18125;SDS011;53956;52.442;13.284;2023-06-22T04:49:06;15.52;;;11.60;;
18125;SDS011;53956;52.442;13.284;2023-06-22T04:51:37;18.48;;;11.43;;
18125;SDS011;53956;52.442;13.284;2023-06-22T04:54:05;13.98;;;11.05;;
18125;SDS011;53956;52.442;13.284;2023-06-22T04:56:32;15.38;;;11.30;;
18125;SDS011;53956;52.442;13.284;2023-06-22T04:58:58;13.80;;;11.05;;
18125;SDS011;53956;52.442;13.284;2023-06-22T05:01:25;13.50;;;10.63;;
18125;SDS011;53956;52.442;13.284;2023-06-22T05:03:52;13.55;;;10.50;;
18125;SDS011;53956;52.442;13.284;2023-06-22T05:06:20;13.25;;;10.57;;
18125;SDS011;53956;52.442;13.284;2023-06-22T05:08:50;11.90;;;10.45;;
18125;SDS011;53956;52.442;13.284;2023-06-22T05:11:18;12.07;;;9.65;;
18125;SDS011;53956;52.442;13.284;2023-06-22T05:13:45;15.05;;;9.85;;
18125;SDS011;53956;52.442;13.284;2023-06-22T05:16:11;10.43;;;8.95;;
18125;SDS011;53956;52.442;13.284;2023-06-22T05:18:38;11.80;;;9.15;;
18125;SDS011;53956;52.442;13.284;2023-06-22T05:21:04;13.00;;;9.40;;
18125;SDS011;53956;52.442;13.284;2023-06-22T05:23:31;11.85;;;8.98;;
18125;SDS011;53956;52.442;13.284;2023-06-22T05:25:59;9.00;;;7.85;;
18125;SDS011;53956;52.442;13.284;2023-06-22T05:28:28;11.75;;;7.80;;
18125;SDS011;53956;52.442;13.284;2023-06-22T05:30:55;9.82;;;8.15;;
18125;SDS011;53956;52.442;13.284;2023-06-22T05:33:22;10.68;;;8.35;;
18125;SDS011;53956;52.442;13.284;2023-06-22T05:35:48;10.25;;;8.07;;
18125;SDS011;53956;52.442;13.284;2023-06-22T05:38:15;10.25;;;7.70;;
18125;SDS011;53956;52.442;13.284;2023-06-22T05:40:41;9.45;;;8.45;;
18125;SDS011;53956;52.442;13.284;2023-06-22T05:43:09;13.50;;;8.40;;
18125;SDS011;53956;52.442;13.284;2023-06-22T05:45:36;9.43;;;7.75;;
18125;SDS011;53956;52.442;13.284;2023-06-22T05:48:03;11.63;;;7.80;;
18125;SDS011;53956;52.442;13.284;2023-06-22T05:50:30;9.32;;;8.00;;
18125;SDS011;53956;52.442;13.284;2023-06-22T05:52:56;11.48;;;7.97;;
18125;SDS011;53956;52.442;13.284;2023-06-22T05:55:23;10.93;;;8.40;;
18125;SDS011;53956;52.442;13.284;2023-06-22T05:57:50;12.90;;;8.80;;
18125;SDS011;53956;52.442;13.284;2023-06-22T06:00:19;10.85;;;8.10;;
18125;SDS011;53956;52.442;13.284;2023-06-22T06:02:48;14.52;;;7.95;;
18125;SDS011;53956;52.442;13.284;2023-06-22T06:05:15;10.82;;;8.27;;
18125;SDS011;53956;52.442;13.284;2023-06-22T06:07:42;9.85;;;8.23;;
18125;SDS011;53956;52.442;13.284;2023-06-22T06:10:09;10.18;;;7.80;;
18125;SDS011;53956;52.442;13.284;2023-06-22T06:12:36;8.95;;;7.30;;
18125;SDS011;53956;52.442;13.284;2023-06-22T06:15:03;14.88;;;7.38;;
18125;SDS011;53956;52.442;13.284;2023-06-22T06:17:32;8.88;;;7.40;;
18125;SDS011;53956;52.442;13.284;2023-06-22T06:19:58;10.30;;;7.22;;
18125;SDS011;53956;52.442;13.284;2023-06-22T06:22:25;9.90;;;6.82;;
18125;SDS011;53956;52.442;13.284;2023-06-22T06:24:52;9.98;;;6.78;;
18125;SDS011;53956;52.442;13.284;2023-06-22T06:27:18;7.93;;;6.30;;
18125;SDS011;53956;52.442;13.284;2023-06-22T06:29:45;10.52;;;6.20;;
18125;SDS011;53956;52.442;13.284;2023-06-22T06:32:13;11.68;;;6.00;;
18125;SDS011;53956;52.442;13.284;2023-06-22T06:34:41;7.32;;;5.32;;
18125;SDS011;53956;52.442;13.284;2023-06-22T06:37:08;9.05;;;5.70;;
18125;SDS011;53956;52.442;13.284;2023-06-22T06:39:35;5.60;;;5.00;;
18125;SDS011;53956;52.442;13.284;2023-06-22T06:42:01;6.72;;;5.28;;
18125;SDS011;53956;52.442;13.284;2023-06-22T06:44:28;9.70;;;5.20;;
18125;SDS011;53956;52.442;13.284;2023-06-22T06:46:55;7.57;;;4.68;;
18125;SDS011;53956;52.442;13.284;2023-06-22T06:49:21;7.07;;;4.72;;
18125;SDS011;53956;52.442;13.284;2023-06-22T06:51:49;7.00;;;4.88;;
18125;SDS011;53956;52.442;13.284;2023-06-22T06:54:16;7.40;;;4.75;;
18125;SDS011;53956;52.442;13.284;2023-06-22T06:56:45;6.85;;;5.00;;
18125;SDS011;53956;52.442;13.284;2023-06-22T06:59:13;8.48;;;6.00;;
18125;SDS011;53956;52.442;13.284;2023-06-22T07:01:40;8.40;;;5.95;;
18125;SDS011;53956;52.442;13.284;2023-06-22T07:04:06;7.55;;;5.07;;
18125;SDS011;53956;52.442;13.284;2023-06-22T07:06:33;8.73;;;4.72;;
18125;SDS011;53956;52.442;13.284;2023-06-22T07:09:01;4.95;;;4.07;;
18125;SDS011;53956;52.442;13.284;2023-06-22T07:11:28;7.13;;;4.63;;
18125;SDS011;53956;52.442;13.284;2023-06-22T07:13:55;8.85;;;5.32;;
18125;SDS011;53956;52.442;13.284;2023-06-22T07:16:22;7.60;;;4.10;;
18125;SDS011;53956;52.442;13.284;2023-06-22T07:18:50;6.47;;;4.43;;
18125;SDS011;53956;52.442;13.284;2023-06-22T07:21:17;5.20;;;3.70;;
18125;SDS011;53956;52.442;13.284;2023-06-22T07:23:43;5.28;;;3.55;;
18125;SDS011;53956;52.442;13.284;2023-06-22T07:26:11;6.80;;;3.60;;
18125;SDS011;53956;52.442;13.284;2023-06-22T07:28:38;4.18;;;3.47;;
18125;SDS011;53956;52.442;13.284;2023-06-22T07:31:05;3.92;;;3.28;;
18125;SDS011;53956;52.442;13.284;2023-06-22T07:33:32;5.07;;;3.55;;
18125;SDS011;53956;52.442;13.284;2023-06-22T07:35:59;4.50;;;3.38;;
18125;SDS011;53956;52.442;13.284;2023-06-22T07:38:25;5.13;;;3.65;;
18125;SDS011;53956;52.442;13.284;2023-06-22T07:40:52;5.38;;;4.03;;
18125;SDS011;53956;52.442;13.284;2023-06-22T07:43:20;5.80;;;3.83;;
18125;SDS011;53956;52.442;13.284;2023-06-22T07:45:49;5.28;;;3.70;;
18125;SDS011;53956;52.442;13.284;2023-06-22T07:48:19;7.15;;;3.67;;
18125;SDS011;53956;52.442;13.284;2023-06-22T07:50:47;7.50;;;3.70;;
18125;SDS011;53956;52.442;13.284;2023-06-22T07:53:13;6.00;;;3.55;;
18125;SDS011;53956;52.442;13.284;2023-06-22T07:55:40;6.72;;;3.50;;
18125;SDS011;53956;52.442;13.284;2023-06-22T07:58:07;4.93;;;3.47;;
18125;SDS011;53956;52.442;13.284;2023-06-22T08:00:35;4.68;;;3.72;;
18125;SDS011;53956;52.442;13.284;2023-06-22T08:03:02;5.97;;;3.72;;
18125;SDS011;53956;52.442;13.284;2023-06-22T08:05:31;4.13;;;3.42;;
18125;SDS011;53956;52.442;13.284;2023-06-22T08:07:57;6.45;;;3.58;;
18125;SDS011;53956;52.442;13.284;2023-06-22T08:10:24;7.07;;;3.85;;
18125;SDS011;53956;52.442;13.284;2023-06-22T08:12:51;4.97;;;3.53;;
18125;SDS011;53956;52.442;13.284;2023-06-22T08:15:17;6.97;;;3.80;;
18125;SDS011;53956;52.442;13.284;2023-06-22T08:17:45;6.00;;;3.60;;
18125;SDS011;53956;52.442;13.284;2023-06-22T08:20:12;4.13;;;3.50;;
18125;SDS011;53956;52.442;13.284;2023-06-22T08:22:39;6.53;;;3.80;;
18125;SDS011;53956;52.442;13.284;2023-06-22T08:25:07;5.88;;;3.70;;
18125;SDS011;53956;52.442;13.284;2023-06-22T08:27:34;5.38;;;3.60;;
18125;SDS011;53956;52.442;13.284;2023-06-22T08:30:01;3.92;;;3.35;;
18125;SDS011;53956;52.442;13.284;2023-06-22T08:32:28;5.13;;;3.58;;
18125;SDS011;53956;52.442;13.284;2023-06-22T08:34:59;4.38;;;3.50;;
18125;SDS011;53956;52.442;13.284;2023-06-22T08:37:25;5.32;;;4.28;;
18125;SDS011;53956;52.442;13.284;2023-06-22T08:39:55;4.80;;;3.58;;
18125;SDS011;53956;52.442;13.284;2023-06-22T08:42:22;4.85;;;3.85;;
18125;SDS011;53956;52.442;13.284;2023-06-22T08:44:50;4.88;;;3.67;;
18125;SDS011;53956;52.442;13.284;2023-06-22T08:47:17;6.03;;;3.65;;
18125;SDS011;53956;52.442;13.284;2023-06-22T08:49:44;7.53;;;3.40;;
18125;SDS011;53956;52.442;13.284;2023-06-22T08:52:12;5.57;;;3.33;;
18125;SDS011;53956;52.442;13.284;2023-06-22T08:54:38;5.43;;;3.00;;
18125;SDS011;53956;52.442;13.284;2023-06-22T08:57:05;5.55;;;3.50;;
18125;SDS011;53956;52.442;13.284;2023-06-22T08:59:32;4.07;;;3.10;;
18125;SDS011;53956;52.442;13.284;2023-06-22T09:01:59;4.53;;;3.50;;
18125;SDS011;53956;52.442;13.284;2023-06-22T09:04:25;4.75;;;3.90;;
18125;SDS011;53956;52.442;13.284;2023-06-22T09:06:52;4.25;;;3.75;;
18125;SDS011;53956;52.442;13.284;2023-06-22T09:09:20;4.20;;;3.75;;
18125;SDS011;53956;52.442;13.284;2023-06-22T09:11:47;4.85;;;3.28;;
18125;SDS011;53956;52.442;13.284;2023-06-22T09:14:14;6.30;;;3.50;;
18125;SDS011;53956;52.442;13.284;2023-06-22T09:16:41;5.57;;;3.72;;
18125;SDS011;53956;52.442;13.284;2023-06-22T09:19:07;6.40;;;3.75;;
18125;SDS011;53956;52.442;13.284;2023-06-22T09:21:34;5.03;;;4.03;;
18125;SDS011;53956;52.442;13.284;2023-06-22T09:24:00;5.65;;;4.20;;
18125;SDS011;53956;52.442;13.284;2023-06-22T09:26:28;4.35;;;3.65;;
18125;SDS011;53956;52.442;13.284;2023-06-22T09:28:55;6.45;;;3.88;;
18125;SDS011;53956;52.442;13.284;2023-06-22T09:31:22;5.43;;;3.55;;
18125;SDS011;53956;52.442;13.284;2023-06-22T09:33:50;4.28;;;3.72;;
18125;SDS011;53956;52.442;13.284;2023-06-22T09:36:17;6.00;;;3.92;;
18125;SDS011;53956;52.442;13.284;2023-06-22T09:38:44;4.22;;;3.78;;
18125;SDS011;53956;52.442;13.284;2023-06-22T09:41:11;6.90;;;4.10;;
18125;SDS011;53956;52.442;13.284;2023-06-22T09:43:39;5.47;;;4.20;;
18125;SDS011;53956;52.442;13.284;2023-06-22T09:46:05;8.05;;;4.70;;
18125;SDS011;53956;52.442;13.284;2023-06-22T09:48:34;6.60;;;4.60;;
18125;SDS011;53956;52.442;13.284;2023-06-22T09:51:01;6.43;;;4.40;;
18125;SDS011;53956;52.442;13.284;2023-06-22T09:53:27;7.40;;;4.53;;
18125;SDS011;53956;52.442;13.284;2023-06-22T09:55:54;6.13;;;4.30;;
18125;SDS011;53956;52.442;13.284;2023-06-22T09:58:22;4.72;;;3.90;;
18125;SDS011;53956;52.442;13.284;2023-06-22T10:00:50;5.88;;;4.35;;
18125;SDS011;53956;52.442;13.284;2023-06-22T10:03:16;7.25;;;4.20;;
18125;SDS011;53956;52.442;13.284;2023-06-22T10:05:43;7.40;;;4.30;;
18125;SDS011;53956;52.442;13.284;2023-06-22T10:08:10;6.30;;;4.13;;
18125;SDS011;53956;52.442;13.284;2023-06-22T10:10:36;4.88;;;4.25;;
18125;SDS011;53956;52.442;13.284;2023-06-22T10:13:07;6.30;;;4.15;;
18125;SDS011;53956;52.442;13.284;2023-06-22T10:15:35;6.88;;;4.43;;
18125;SDS011;53956;52.442;13.284;2023-06-22T10:18:02;6.15;;;4.30;;
18125;SDS011;53956;52.442;13.284;2023-06-22T10:20:29;5.60;;;4.38;;
18125;SDS011;53956;52.442;13.284;2023-06-22T10:22:56;5.15;;;4.25;;
18125;SDS011;53956;52.442;13.284;2023-06-22T10:25:22;5.63;;;4.38;;
18125;SDS011;53956;52.442;13.284;2023-06-22T10:27:49;4.57;;;4.03;;
18125;SDS011;53956;52.442;13.284;2023-06-22T10:30:16;5.72;;;4.20;;
18125;SDS011;53956;52.442;13.284;2023-06-22T10:32:43;6.18;;;4.15;;
18125;SDS011;53956;52.442;13.284;2023-06-22T10:35:11;6.75;;;4.75;;
18125;SDS011;53956;52.442;13.284;2023-06-22T10:37:41;9.13;;;4.55;;
18125;SDS011;53956;52.442;13.284;2023-06-22T10:40:08;5.45;;;4.32;;
18125;SDS011;53956;52.442;13.284;2023-06-22T10:42:36;5.20;;;4.15;;
18125;SDS011;53956;52.442;13.284;2023-06-22T10:45:02;5.63;;;4.10;;
18125;SDS011;53956;52.442;13.284;2023-06-22T10:47:29;9.13;;;4.40;;
18125;SDS011;53956;52.442;13.284;2023-06-22T10:49:56;5.53;;;4.32;;
18125;SDS011;53956;52.442;13.284;2023-06-22T10:52:24;6.10;;;4.40;;
18125;SDS011;53956;52.442;13.284;2023-06-22T10:54:50;11.60;;;4.55;;
18125;SDS011;53956;52.442;13.284;2023-06-22T10:57:17;6.13;;;4.38;;
18125;SDS011;53956;52.442;13.284;2023-06-22T10:59:44;6.25;;;4.15;;
18125;SDS011;53956;52.442;13.284;2023-06-22T11:02:10;7.93;;;4.60;;
18125;SDS011;53956;52.442;13.284;2023-06-22T11:04:37;6.05;;;4.10;;
18125;SDS011;53956;52.442;13.284;2023-06-22T11:07:04;5.28;;;4.00;;
18125;SDS011;53956;52.442;13.284;2023-06-22T11:09:32;6.05;;;4.00;;
18125;SDS011;53956;52.442;13.284;2023-06-22T11:11:59;4.82;;;4.07;;
18125;SDS011;53956;52.442;13.284;2023-06-22T11:14:26;7.07;;;4.47;;
18125;SDS011;53956;52.442;13.284;2023-06-22T11:16:52;5.38;;;4.60;;
18125;SDS011;53956;52.442;13.284;2023-06-22T11:19:19;5.95;;;4.13;;
18125;SDS011;53956;52.442;13.284;2023-06-22T11:21:46;5.28;;;4.15;;
18125;SDS011;53956;52.442;13.284;2023-06-22T11:24:12;5.88;;;4.28;;
18125;SDS011;53956;52.442;13.284;2023-06-22T11:26:40;5.18;;;4.38;;
18125;SDS011;53956;52.442;13.284;2023-06-22T11:29:07;7.80;;;4.50;;
18125;SDS011;53956;52.442;13.284;2023-06-22T11:31:34;4.93;;;4.10;;
18125;SDS011;53956;52.442;13.284;2023-06-22T11:34:00;4.75;;;4.00;;
18125;SDS011;53956;52.442;13.284;2023-06-22T11:36:27;5.07;;;4.55;;
18125;SDS011;53956;52.442;13.284;2023-06-22T11:38:56;5.63;;;4.50;;
18125;SDS011;53956;52.442;13.284;2023-06-22T11:41:22;5.90;;;4.40;;
18125;SDS011;53956;52.442;13.284;2023-06-22T11:43:50;5.40;;;4.30;;
18125;SDS011;53956;52.442;13.284;2023-06-22T11:46:17;5.93;;;3.88;;
18125;SDS011;53956;52.442;13.284;2023-06-22T11:48:44;5.50;;;3.90;;
18125;SDS011;53956;52.442;13.284;2023-06-22T11:51:10;4.53;;;4.00;;
18125;SDS011;53956;52.442;13.284;2023-06-22T11:53:37;6.18;;;4.30;;
18125;SDS011;53956;52.442;13.284;2023-06-22T11:56:04;5.10;;;4.47;;
18125;SDS011;53956;52.442;13.284;2023-06-22T11:58:30;5.05;;;4.20;;
18125;SDS011;53956;52.442;13.284;2023-06-22T12:00:58;5.38;;;4.13;;
18125;SDS011;53956;52.442;13.284;2023-06-22T12:03:25;6.18;;;4.40;;
18125;SDS011;53956;52.442;13.284;2023-06-22T12:05:51;5.85;;;4.18;;
18125;SDS011;53956;52.442;13.284;2023-06-22T12:08:18;5.63;;;4.20;;
18125;SDS011;53956;52.442;13.284;2023-06-22T12:10:45;5.13;;;4.57;;
18125;SDS011;53956;52.442;13.284;2023-06-22T12:13:11;5.53;;;4.40;;
18125;SDS011;53956;52.442;13.284;2023-06-22T12:15:38;7.20;;;5.00;;
18125;SDS011;53956;52.442;13.284;2023-06-22T12:18:06;5.82;;;4.35;;
18125;SDS011;53956;52.442;13.284;2023-06-22T12:20:33;5.93;;;4.80;;
18125;SDS011;53956;52.442;13.284;2023-06-22T12:23:00;5.40;;;4.72;;
18125;SDS011;53956;52.442;13.284;2023-06-22T12:25:27;5.40;;;4.85;;
18125;SDS011;53956;52.442;13.284;2023-06-22T12:27:53;5.35;;;4.38;;
18125;SDS011;53956;52.442;13.284;2023-06-22T12:30:20;5.78;;;4.72;;
18125;SDS011;53956;52.442;13.284;2023-06-22T12:32:47;4.85;;;4.40;;
18125;SDS011;53956;52.442;13.284;2023-06-22T12:35:15;4.93;;;4.43;;
18125;SDS011;53956;52.442;13.284;2023-06-22T12:37:42;5.10;;;4.32;;
18125;SDS011;53956;52.442;13.284;2023-06-22T12:40:09;6.47;;;4.60;;
18125;SDS011;53956;52.442;13.284;2023-06-22T12:42:36;6.28;;;4.68;;
18125;SDS011;53956;52.442;13.284;2023-06-22T12:45:03;5.75;;;4.72;;
18125;SDS011;53956;52.442;13.284;2023-06-22T12:47:31;7.32;;;4.60;;
18125;SDS011;53956;52.442;13.284;2023-06-22T12:49:57;5.13;;;4.60;;
18125;SDS011;53956;52.442;13.284;2023-06-22T12:52:25;5.00;;;4.10;;
18125;SDS011;53956;52.442;13.284;2023-06-22T12:54:52;6.70;;;5.05;;
18125;SDS011;53956;52.442;13.284;2023-06-22T12:57:19;6.05;;;4.70;;
18125;SDS011;53956;52.442;13.284;2023-06-22T12:59:46;9.27;;;5.00;;
18125;SDS011;53956;52.442;13.284;2023-06-22T13:02:12;6.53;;;4.65;;
18125;SDS011;53956;52.442;13.284;2023-06-22T13:04:39;5.60;;;4.70;;
18125;SDS011;53956;52.442;13.284;2023-06-22T13:07:06;10.38;;;4.90;;
18125;SDS011;53956;52.442;13.284;2023-06-22T13:09:35;5.80;;;5.03;;
18125;SDS011;53956;52.442;13.284;2023-06-22T13:12:02;5.88;;;4.70;;
18125;SDS011;53956;52.442;13.284;2023-06-22T13:14:29;9.10;;;4.93;;
18125;SDS011;53956;52.442;13.284;2023-06-22T13:16:56;7.07;;;5.53;;
18125;SDS011;53956;52.442;13.284;2023-06-22T13:19:22;7.78;;;5.18;;
18125;SDS011;53956;52.442;13.284;2023-06-22T13:21:49;5.80;;;4.90;;
18125;SDS011;53956;52.442;13.284;2023-06-22T13:24:16;8.18;;;5.13;;
18125;SDS011;53956;52.442;13.284;2023-06-22T13:26:44;6.00;;;5.00;;
18125;SDS011;53956;52.442;13.284;2023-06-22T13:29:10;6.93;;;5.22;;
18125;SDS011;53956;52.442;13.284;2023-06-22T13:31:37;6.57;;;4.85;;
18125;SDS011;53956;52.442;13.284;2023-06-22T13:34:04;7.13;;;5.22;;
18125;SDS011;53956;52.442;13.284;2023-06-22T13:36:30;6.85;;;5.00;;
18125;SDS011;53956;52.442;13.284;2023-06-22T13:38:57;7.13;;;4.75;;
18125;SDS011;53956;52.442;13.284;2023-06-22T13:41:24;8.93;;;5.13;;
18125;SDS011;53956;52.442;13.284;2023-06-22T13:43:52;7.18;;;5.20;;
18125;SDS011;53956;52.442;13.284;2023-06-22T13:46:18;7.78;;;5.45;;
18125;SDS011;53956;52.442;13.284;2023-06-22T13:48:45;8.57;;;5.38;;
18125;SDS011;53956;52.442;13.284;2023-06-22T13:51:12;6.72;;;5.10;;
18125;SDS011;53956;52.442;13.284;2023-06-22T13:53:38;6.00;;;4.65;;
18125;SDS011;53956;52.442;13.284;2023-06-22T13:56:05;6.40;;;5.38;;
18125;SDS011;53956;52.442;13.284;2023-06-22T13:58:32;8.30;;;5.30;;
18125;SDS011;53956;52.442;13.284;2023-06-22T14:00:59;5.95;;;5.07;;
18125;SDS011;53956;52.442;13.284;2023-06-22T14:03:26;6.43;;;5.20;;
18125;SDS011;53956;52.442;13.284;2023-06-22T14:05:53;6.35;;;5.68;;
18125;SDS011;53956;52.442;13.284;2023-06-22T14:08:21;6.85;;;5.40;;
18125;SDS011;53956;52.442;13.284;2023-06-22T14:10:48;9.23;;;5.80;;
18125;SDS011;53956;52.442;13.284;2023-06-22T14:13:15;6.45;;;5.28;;
18125;SDS011;53956;52.442;13.284;2023-06-22T14:15:42;11.82;;;6.13;;
18125;SDS011;53956;52.442;13.284;2023-06-22T14:18:10;5.93;;;5.00;;
18125;SDS011;53956;52.442;13.284;2023-06-22T14:20:36;7.53;;;5.07;;
18125;SDS011;53956;52.442;13.284;2023-06-22T14:23:05;7.68;;;5.03;;
18125;SDS011;53956;52.442;13.284;2023-06-22T14:25:31;6.28;;;5.00;;
18125;SDS011;53956;52.442;13.284;2023-06-22T14:27:58;6.68;;;5.60;;